sensor_id;sensor_type;location;lat;lon;timestamp;temperature;humidity
40123;DHT22;25832;45.490;4.912;2023-03-31T00:01:19;13.90;99.90
40123;DHT22;25832;45.490;4.912;2023-03-31T00:03:45;14.00;99.90
40123;DHT22;25832;45.490;4.912;2023-03-31T00:06:12;14.00;99.90
40123;DHT22;25832;45.490;4.912;2023-03-31T00:08:42;13.90;99.90
40123;DHT22;25832;45.490;4.912;2023-03-31T00:11:08;13.90;99.90
40123;DHT22;25832;45.490;4.912;2023-03-31T00:13:35;13.90;99.90
40123;DHT22;25832;45.490;4.912;2023-03-31T00:16:08;14.00;99.90
40123;DHT22;25832;45.490;4.912;2023-03-31T00:18:35;13.90;99.90
40123;DHT22;25832;45.490;4.912;2023-03-31T00:21:11;13.90;99.90
40123;DHT22;25832;45.490;4.912;2023-03-31T00:23:41;13.90;99.90
40123;DHT22;25832;45.490;4.912;2023-03-31T00:26:07;13.80;99.90
40123;DHT22;25832;45.490;4.912;2023-03-31T00:28:33;13.80;99.90
40123;DHT22;25832;45.490;4.912;2023-03-31T00:31:00;13.80;99.90
40123;DHT22;25832;45.490;4.912;2023-03-31T00:33:27;13.70;99.90
40123;DHT22;25832;45.490;4.912;2023-03-31T00:35:54;13.80;99.90
40123;DHT22;25832;45.490;4.912;2023-03-31T00:38:20;13.80;99.90
40123;DHT22;25832;45.490;4.912;2023-03-31T00:40:46;13.80;99.90
40123;DHT22;25832;45.490;4.912;2023-03-31T00:43:32;13.80;99.90
40123;DHT22;25832;45.490;4.912;2023-03-31T00:46:17;13.80;99.90
40123;DHT22;25832;45.490;4.912;2023-03-31T00:48:50;13.90;99.90
40123;DHT22;25832;45.490;4.912;2023-03-31T00:51:17;13.80;99.90
40123;DHT22;25832;45.490;4.912;2023-03-31T00:53:47;13.80;99.90
40123;DHT22;25832;45.490;4.912;2023-03-31T00:56:20;13.80;99.90
40123;DHT22;25832;45.490;4.912;2023-03-31T00:58:46;13.80;99.90
40123;DHT22;25832;45.490;4.912;2023-03-31T01:01:17;13.70;99.90
40123;DHT22;25832;45.490;4.912;2023-03-31T01:03:45;13.80;99.90
40123;DHT22;25832;45.490;4.912;2023-03-31T01:06:14;13.80;99.90
40123;DHT22;25832;45.490;4.912;2023-03-31T01:08:41;13.80;99.90
40123;DHT22;25832;45.490;4.912;2023-03-31T01:11:10;13.80;99.90
40123;DHT22;25832;45.490;4.912;2023-03-31T01:13:38;13.70;99.90
40123;DHT22;25832;45.490;4.912;2023-03-31T01:16:05;13.70;99.90
40123;DHT22;25832;45.490;4.912;2023-03-31T01:18:31;13.70;99.90
40123;DHT22;25832;45.490;4.912;2023-03-31T01:54:48;13.40;99.90
40123;DHT22;25832;45.490;4.912;2023-03-31T01:57:44;13.40;99.90
40123;DHT22;25832;45.490;4.912;2023-03-31T02:00:16;13.30;99.90
40123;DHT22;25832;45.490;4.912;2023-03-31T02:02:52;13.40;99.90
40123;DHT22;25832;45.490;4.912;2023-03-31T02:05:23;13.40;99.90
40123;DHT22;25832;45.490;4.912;2023-03-31T02:07:53;13.40;99.90
40123;DHT22;25832;45.490;4.912;2023-03-31T02:10:21;13.40;99.90
40123;DHT22;25832;45.490;4.912;2023-03-31T02:12:49;13.30;99.90
40123;DHT22;25832;45.490;4.912;2023-03-31T02:15:23;13.30;99.90
40123;DHT22;25832;45.490;4.912;2023-03-31T02:17:54;13.30;99.90
40123;DHT22;25832;45.490;4.912;2023-03-31T02:20:21;13.30;99.90
40123;DHT22;25832;45.490;4.912;2023-03-31T02:22:51;13.30;99.90
40123;DHT22;25832;45.490;4.912;2023-03-31T02:25:25;13.30;99.90
40123;DHT22;25832;45.490;4.912;2023-03-31T02:27:57;13.30;99.90
40123;DHT22;25832;45.490;4.912;2023-03-31T02:30:24;13.30;99.90
40123;DHT22;25832;45.490;4.912;2023-03-31T02:32:54;13.30;99.90
40123;DHT22;25832;45.490;4.912;2023-03-31T02:35:20;13.20;99.90
40123;DHT22;25832;45.490;4.912;2023-03-31T02:37:48;13.20;99.90
40123;DHT22;25832;45.490;4.912;2023-03-31T02:40:20;13.20;99.90
40123;DHT22;25832;45.490;4.912;2023-03-31T02:42:47;13.20;99.90
40123;DHT22;25832;45.490;4.912;2023-03-31T02:45:52;13.20;99.90
40123;DHT22;25832;45.490;4.912;2023-03-31T02:48:30;13.20;99.90
40123;DHT22;25832;45.490;4.912;2023-03-31T02:57:05;13.00;99.90
40123;DHT22;25832;45.490;4.912;2023-03-31T03:15:00;12.80;99.90
40123;DHT22;25832;45.490;4.912;2023-03-31T03:17:11;12.90;99.90
40123;DHT22;25832;45.490;4.912;2023-03-31T03:19:40;12.80;99.90
40123;DHT22;25832;45.490;4.912;2023-03-31T03:22:07;12.90;99.90
40123;DHT22;25832;45.490;4.912;2023-03-31T03:24:32;12.90;99.90
40123;DHT22;25832;45.490;4.912;2023-03-31T03:26:59;12.90;99.90
40123;DHT22;25832;45.490;4.912;2023-03-31T03:29:25;12.90;99.90
40123;DHT22;25832;45.490;4.912;2023-03-31T03:31:52;13.00;99.90
40123;DHT22;25832;45.490;4.912;2023-03-31T03:34:17;13.00;99.90
40123;DHT22;25832;45.490;4.912;2023-03-31T03:36:45;13.00;99.90
40123;DHT22;25832;45.490;4.912;2023-03-31T03:39:11;13.00;99.90
40123;DHT22;25832;45.490;4.912;2023-03-31T03:41:37;13.00;99.90
40123;DHT22;25832;45.490;4.912;2023-03-31T03:44:03;13.00;99.90
40123;DHT22;25832;45.490;4.912;2023-03-31T03:46:29;13.00;99.90
40123;DHT22;25832;45.490;4.912;2023-03-31T03:48:55;13.00;99.90
40123;DHT22;25832;45.490;4.912;2023-03-31T03:51:21;13.00;99.90
40123;DHT22;25832;45.490;4.912;2023-03-31T03:53:47;13.00;99.90
40123;DHT22;25832;45.490;4.912;2023-03-31T03:56:12;13.10;99.90
40123;DHT22;25832;45.490;4.912;2023-03-31T03:58:38;13.10;99.90
40123;DHT22;25832;45.490;4.912;2023-03-31T04:01:04;13.10;99.90
40123;DHT22;25832;45.490;4.912;2023-03-31T04:03:30;13.10;99.90
40123;DHT22;25832;45.490;4.912;2023-03-31T04:05:56;13.10;99.90
40123;DHT22;25832;45.490;4.912;2023-03-31T04:08:22;13.10;99.90
40123;DHT22;25832;45.490;4.912;2023-03-31T04:10:48;13.10;99.90
40123;DHT22;25832;45.490;4.912;2023-03-31T04:13:18;13.10;99.90
40123;DHT22;25832;45.490;4.912;2023-03-31T04:15:43;13.10;99.90
40123;DHT22;25832;45.490;4.912;2023-03-31T04:18:10;13.20;99.90
40123;DHT22;25832;45.490;4.912;2023-03-31T04:20:45;13.10;99.90
40123;DHT22;25832;45.490;4.912;2023-03-31T04:23:20;13.10;99.90
40123;DHT22;25832;45.490;4.912;2023-03-31T04:25:49;13.20;99.90
40123;DHT22;25832;45.490;4.912;2023-03-31T04:28:15;13.20;99.90
40123;DHT22;25832;45.490;4.912;2023-03-31T04:30:40;13.20;99.90
40123;DHT22;25832;45.490;4.912;2023-03-31T04:33:06;13.20;99.90
40123;DHT22;25832;45.490;4.912;2023-03-31T04:35:32;13.20;99.90
40123;DHT22;25832;45.490;4.912;2023-03-31T04:38:23;13.20;99.90
40123;DHT22;25832;45.490;4.912;2023-03-31T04:40:52;13.20;99.90
40123;DHT22;25832;45.490;4.912;2023-03-31T04:43:19;13.20;99.90
40123;DHT22;25832;45.490;4.912;2023-03-31T04:45:45;13.20;99.90
40123;DHT22;25832;45.490;4.912;2023-03-31T04:48:11;13.20;99.90
40123;DHT22;25832;45.490;4.912;2023-03-31T04:50:38;13.20;99.90
40123;DHT22;25832;45.490;4.912;2023-03-31T04:53:04;13.20;99.90
40123;DHT22;25832;45.490;4.912;2023-03-31T04:55:30;13.20;99.90
40123;DHT22;25832;45.490;4.912;2023-03-31T04:57:56;13.20;99.90
40123;DHT22;25832;45.490;4.912;2023-03-31T05:00:22;13.30;99.90
40123;DHT22;25832;45.490;4.912;2023-03-31T05:02:48;13.20;99.90
40123;DHT22;25832;45.490;4.912;2023-03-31T05:05:14;13.20;99.90
40123;DHT22;25832;45.490;4.912;2023-03-31T05:07:40;13.30;99.90
40123;DHT22;25832;45.490;4.912;2023-03-31T05:10:06;13.30;99.90
40123;DHT22;25832;45.490;4.912;2023-03-31T05:12:38;13.30;99.90
40123;DHT22;25832;45.490;4.912;2023-03-31T05:15:05;13.30;99.90
40123;DHT22;25832;45.490;4.912;2023-03-31T05:17:32;13.30;99.90
40123;DHT22;25832;45.490;4.912;2023-03-31T05:19:58;13.30;99.90
40123;DHT22;25832;45.490;4.912;2023-03-31T05:22:24;13.30;99.90
40123;DHT22;25832;45.490;4.912;2023-03-31T05:24:50;13.30;99.90
40123;DHT22;25832;45.490;4.912;2023-03-31T05:27:16;13.40;99.90
40123;DHT22;25832;45.490;4.912;2023-03-31T05:29:41;13.40;99.90
40123;DHT22;25832;45.490;4.912;2023-03-31T05:32:08;13.40;99.50
40123;DHT22;25832;45.490;4.912;2023-03-31T05:34:34;13.40;99.40
40123;DHT22;25832;45.490;4.912;2023-03-31T05:36:59;13.40;99.20
40123;DHT22;25832;45.490;4.912;2023-03-31T05:39:25;13.40;99.10
40123;DHT22;25832;45.490;4.912;2023-03-31T05:41:51;13.40;98.60
40123;DHT22;25832;45.490;4.912;2023-03-31T05:44:17;13.50;98.50
40123;DHT22;25832;45.490;4.912;2023-03-31T05:46:45;13.50;98.40
40123;DHT22;25832;45.490;4.912;2023-03-31T05:49:11;13.50;98.40
40123;DHT22;25832;45.490;4.912;2023-03-31T05:51:36;13.50;98.40
40123;DHT22;25832;45.490;4.912;2023-03-31T05:54:02;13.60;97.90
40123;DHT22;25832;45.490;4.912;2023-03-31T05:56:28;13.50;97.50
40123;DHT22;25832;45.490;4.912;2023-03-31T05:58:53;13.50;97.40
40123;DHT22;25832;45.490;4.912;2023-03-31T06:01:19;13.50;97.80
40123;DHT22;25832;45.490;4.912;2023-03-31T06:03:47;13.50;97.90
40123;DHT22;25832;45.490;4.912;2023-03-31T06:06:13;13.50;99.00
40123;DHT22;25832;45.490;4.912;2023-03-31T06:08:41;13.50;98.50
40123;DHT22;25832;45.490;4.912;2023-03-31T06:11:10;13.50;98.70
40123;DHT22;25832;45.490;4.912;2023-03-31T06:13:36;13.50;99.30
40123;DHT22;25832;45.490;4.912;2023-03-31T06:16:03;13.60;99.40
40123;DHT22;25832;45.490;4.912;2023-03-31T06:18:31;13.60;99.70
40123;DHT22;25832;45.490;4.912;2023-03-31T06:20:57;13.60;99.90
40123;DHT22;25832;45.490;4.912;2023-03-31T06:23:24;13.60;99.90
40123;DHT22;25832;45.490;4.912;2023-03-31T06:25:51;13.60;99.90
40123;DHT22;25832;45.490;4.912;2023-03-31T06:28:17;13.60;99.90
40123;DHT22;25832;45.490;4.912;2023-03-31T06:30:43;13.60;99.90
40123;DHT22;25832;45.490;4.912;2023-03-31T06:33:09;13.60;99.90
40123;DHT22;25832;45.490;4.912;2023-03-31T06:35:39;13.60;99.90
40123;DHT22;25832;45.490;4.912;2023-03-31T06:38:06;13.60;99.90
40123;DHT22;25832;45.490;4.912;2023-03-31T06:40:32;13.50;99.90
40123;DHT22;25832;45.490;4.912;2023-03-31T06:42:58;13.60;99.90
40123;DHT22;25832;45.490;4.912;2023-03-31T06:45:24;13.60;99.90
40123;DHT22;25832;45.490;4.912;2023-03-31T06:47:50;13.50;99.90
40123;DHT22;25832;45.490;4.912;2023-03-31T06:50:16;13.50;99.90
40123;DHT22;25832;45.490;4.912;2023-03-31T06:52:41;13.50;99.90
40123;DHT22;25832;45.490;4.912;2023-03-31T06:55:08;13.50;99.90
40123;DHT22;25832;45.490;4.912;2023-03-31T06:57:34;13.50;99.90
40123;DHT22;25832;45.490;4.912;2023-03-31T07:00:01;13.50;99.90
40123;DHT22;25832;45.490;4.912;2023-03-31T07:02:26;13.60;99.90
40123;DHT22;25832;45.490;4.912;2023-03-31T07:04:52;13.60;99.90
40123;DHT22;25832;45.490;4.912;2023-03-31T07:07:18;13.60;99.90
40123;DHT22;25832;45.490;4.912;2023-03-31T07:09:43;13.60;99.90
40123;DHT22;25832;45.490;4.912;2023-03-31T07:12:09;13.70;99.90
40123;DHT22;25832;45.490;4.912;2023-03-31T07:14:35;13.70;99.90
40123;DHT22;25832;45.490;4.912;2023-03-31T07:17:01;13.70;99.90
40123;DHT22;25832;45.490;4.912;2023-03-31T07:19:27;13.70;99.90
40123;DHT22;25832;45.490;4.912;2023-03-31T07:21:53;13.70;99.90
40123;DHT22;25832;45.490;4.912;2023-03-31T07:24:21;13.80;99.90
40123;DHT22;25832;45.490;4.912;2023-03-31T07:26:46;13.80;99.90
40123;DHT22;25832;45.490;4.912;2023-03-31T07:29:12;13.80;99.90
40123;DHT22;25832;45.490;4.912;2023-03-31T07:31:38;13.90;99.90
40123;DHT22;25832;45.490;4.912;2023-03-31T07:34:03;13.90;99.90
40123;DHT22;25832;45.490;4.912;2023-03-31T07:36:30;14.00;99.90
40123;DHT22;25832;45.490;4.912;2023-03-31T07:38:56;14.10;99.90
40123;DHT22;25832;45.490;4.912;2023-03-31T07:41:22;14.10;99.90
40123;DHT22;25832;45.490;4.912;2023-03-31T07:43:48;14.20;99.90
40123;DHT22;25832;45.490;4.912;2023-03-31T07:46:25;14.10;99.90
40123;DHT22;25832;45.490;4.912;2023-03-31T07:48:54;14.20;99.90
40123;DHT22;25832;45.490;4.912;2023-03-31T07:51:22;14.10;99.90
40123;DHT22;25832;45.490;4.912;2023-03-31T07:53:49;14.10;99.90
40123;DHT22;25832;45.490;4.912;2023-03-31T07:56:17;14.00;99.90
40123;DHT22;25832;45.490;4.912;2023-03-31T07:58:43;14.10;99.90
40123;DHT22;25832;45.490;4.912;2023-03-31T08:01:15;14.20;99.90
40123;DHT22;25832;45.490;4.912;2023-03-31T08:03:42;14.20;99.90
40123;DHT22;25832;45.490;4.912;2023-03-31T08:06:08;14.20;99.90
40123;DHT22;25832;45.490;4.912;2023-03-31T08:08:34;14.30;99.90
40123;DHT22;25832;45.490;4.912;2023-03-31T08:11:02;14.20;99.90
40123;DHT22;25832;45.490;4.912;2023-03-31T08:13:28;14.20;99.90
40123;DHT22;25832;45.490;4.912;2023-03-31T08:15:55;14.30;99.90
40123;DHT22;25832;45.490;4.912;2023-03-31T08:18:21;14.40;99.90
40123;DHT22;25832;45.490;4.912;2023-03-31T08:20:46;14.70;99.90
40123;DHT22;25832;45.490;4.912;2023-03-31T08:23:14;15.00;99.90
40123;DHT22;25832;45.490;4.912;2023-03-31T08:25:40;15.20;99.90
40123;DHT22;25832;45.490;4.912;2023-03-31T08:28:06;15.20;99.90
40123;DHT22;25832;45.490;4.912;2023-03-31T08:30:37;15.20;99.90
40123;DHT22;25832;45.490;4.912;2023-03-31T08:33:03;15.40;99.90
40123;DHT22;25832;45.490;4.912;2023-03-31T08:35:28;15.60;99.90
40123;DHT22;25832;45.490;4.912;2023-03-31T08:37:54;15.80;99.70
40123;DHT22;25832;45.490;4.912;2023-03-31T08:40:23;16.00;99.50
40123;DHT22;25832;45.490;4.912;2023-03-31T08:43:01;15.90;99.90
40123;DHT22;25832;45.490;4.912;2023-03-31T08:45:31;16.10;99.50
40123;DHT22;25832;45.490;4.912;2023-03-31T08:51:00;16.40;98.80
40123;DHT22;25832;45.490;4.912;2023-03-31T08:53:28;16.40;98.50
40123;DHT22;25832;45.490;4.912;2023-03-31T08:55:55;16.30;98.40
40123;DHT22;25832;45.490;4.912;2023-03-31T08:58:54;16.20;98.50
40123;DHT22;25832;45.490;4.912;2023-03-31T09:07:17;16.20;99.30
40123;DHT22;25832;45.490;4.912;2023-03-31T09:18:27;16.90;97.00
40123;DHT22;25832;45.490;4.912;2023-03-31T09:29:01;17.70;93.50
40123;DHT22;25832;45.490;4.912;2023-03-31T09:31:32;17.90;93.20
40123;DHT22;25832;45.490;4.912;2023-03-31T09:34:14;18.10;93.00
40123;DHT22;25832;45.490;4.912;2023-03-31T09:36:41;18.30;90.00
40123;DHT22;25832;45.490;4.912;2023-03-31T09:39:11;18.40;89.50
40123;DHT22;25832;45.490;4.912;2023-03-31T09:41:46;18.50;86.90
40123;DHT22;25832;45.490;4.912;2023-03-31T09:44:26;18.70;88.30
40123;DHT22;25832;45.490;4.912;2023-03-31T09:46:53;18.90;90.40
40123;DHT22;25832;45.490;4.912;2023-03-31T09:49:22;19.00;91.30
40123;DHT22;25832;45.490;4.912;2023-03-31T09:54:43;19.10;90.20
40123;DHT22;25832;45.490;4.912;2023-03-31T09:57:22;19.20;91.90
40123;DHT22;25832;45.490;4.912;2023-03-31T09:59:50;19.00;92.40
40123;DHT22;25832;45.490;4.912;2023-03-31T10:04:57;18.70;92.50
40123;DHT22;25832;45.490;4.912;2023-03-31T10:07:23;18.50;93.20
40123;DHT22;25832;45.490;4.912;2023-03-31T10:09:51;18.40;92.90
40123;DHT22;25832;45.490;4.912;2023-03-31T10:12:20;18.30;92.80
40123;DHT22;25832;45.490;4.912;2023-03-31T10:14:51;18.10;93.60
40123;DHT22;25832;45.490;4.912;2023-03-31T10:17:20;17.90;93.90
40123;DHT22;25832;45.490;4.912;2023-03-31T10:20:04;17.70;94.70
40123;DHT22;25832;45.490;4.912;2023-03-31T10:22:32;17.60;94.40
40123;DHT22;25832;45.490;4.912;2023-03-31T10:25:18;17.70;96.00
40123;DHT22;25832;45.490;4.912;2023-03-31T10:27:47;17.70;95.00
40123;DHT22;25832;45.490;4.912;2023-03-31T10:30:25;17.60;95.30
40123;DHT22;25832;45.490;4.912;2023-03-31T10:32:53;17.50;95.30
40123;DHT22;25832;45.490;4.912;2023-03-31T10:35:32;17.40;95.80
40123;DHT22;25832;45.490;4.912;2023-03-31T10:38:11;17.40;96.10
40123;DHT22;25832;45.490;4.912;2023-03-31T10:40:50;17.30;96.80
40123;DHT22;25832;45.490;4.912;2023-03-31T10:43:28;17.30;96.60
40123;DHT22;25832;45.490;4.912;2023-03-31T10:46:00;17.30;96.40
40123;DHT22;25832;45.490;4.912;2023-03-31T10:48:32;17.20;97.40
40123;DHT22;25832;45.490;4.912;2023-03-31T10:51:00;17.30;92.10
40123;DHT22;25832;45.490;4.912;2023-03-31T10:53:28;17.50;96.70
40123;DHT22;25832;45.490;4.912;2023-03-31T10:56:12;17.60;96.00
40123;DHT22;25832;45.490;4.912;2023-03-31T11:19:25;18.50;95.70
40123;DHT22;25832;45.490;4.912;2023-03-31T11:21:52;18.70;95.50
40123;DHT22;25832;45.490;4.912;2023-03-31T11:37:49;18.40;94.10
40123;DHT22;25832;45.490;4.912;2023-03-31T11:40:56;18.30;94.30
40123;DHT22;25832;45.490;4.912;2023-03-31T11:43:51;18.30;94.00
40123;DHT22;25832;45.490;4.912;2023-03-31T11:48:58;18.30;93.90
40123;DHT22;25832;45.490;4.912;2023-03-31T11:51:27;18.30;88.90
40123;DHT22;25832;45.490;4.912;2023-03-31T11:53:56;18.20;75.00
40123;DHT22;25832;45.490;4.912;2023-03-31T11:56:30;18.20;75.00
40123;DHT22;25832;45.490;4.912;2023-03-31T11:58:59;18.30;68.80
40123;DHT22;25832;45.490;4.912;2023-03-31T12:01:53;18.60;66.60
40123;DHT22;25832;45.490;4.912;2023-03-31T12:04:34;18.90;63.00
40123;DHT22;25832;45.490;4.912;2023-03-31T12:07:27;19.20;61.50
40123;DHT22;25832;45.490;4.912;2023-03-31T12:10:16;19.40;63.30
40123;DHT22;25832;45.490;4.912;2023-03-31T12:12:57;19.60;63.40
40123;DHT22;25832;45.490;4.912;2023-03-31T12:15:29;19.80;59.40
40123;DHT22;25832;45.490;4.912;2023-03-31T12:18:07;19.80;60.60
40123;DHT22;25832;45.490;4.912;2023-03-31T12:20:38;19.80;60.80
40123;DHT22;25832;45.490;4.912;2023-03-31T12:23:12;19.80;61.80
40123;DHT22;25832;45.490;4.912;2023-03-31T12:25:53;19.60;60.30
40123;DHT22;25832;45.490;4.912;2023-03-31T12:28:20;19.30;60.90
40123;DHT22;25832;45.490;4.912;2023-03-31T12:30:47;19.20;60.10
40123;DHT22;25832;45.490;4.912;2023-03-31T12:33:42;19.30;60.20
40123;DHT22;25832;45.490;4.912;2023-03-31T12:39:21;19.60;60.80
40123;DHT22;25832;45.490;4.912;2023-03-31T12:52:45;18.80;60.90
40123;DHT22;25832;45.490;4.912;2023-03-31T12:55:37;18.80;60.60
40123;DHT22;25832;45.490;4.912;2023-03-31T13:04:19;19.20;60.50
40123;DHT22;25832;45.490;4.912;2023-03-31T13:06:51;19.00;60.40
40123;DHT22;25832;45.490;4.912;2023-03-31T13:11:44;18.40;62.30
40123;DHT22;25832;45.490;4.912;2023-03-31T13:16:45;18.00;63.40
40123;DHT22;25832;45.490;4.912;2023-03-31T13:19:25;17.90;63.70
40123;DHT22;25832;45.490;4.912;2023-03-31T13:21:59;17.90;65.10
40123;DHT22;25832;45.490;4.912;2023-03-31T13:24:27;18.00;65.00
40123;DHT22;25832;45.490;4.912;2023-03-31T13:26:54;17.90;65.20
40123;DHT22;25832;45.490;4.912;2023-03-31T13:29:24;17.80;65.40
40123;DHT22;25832;45.490;4.912;2023-03-31T13:34:31;17.60;67.10
40123;DHT22;25832;45.490;4.912;2023-03-31T13:51:31;17.20;69.40
40123;DHT22;25832;45.490;4.912;2023-03-31T14:10:53;16.50;72.70
40123;DHT22;25832;45.490;4.912;2023-03-31T14:13:23;16.50;72.20
40123;DHT22;25832;45.490;4.912;2023-03-31T14:15:52;16.60;73.70
40123;DHT22;25832;45.490;4.912;2023-03-31T14:21:28;17.10;71.10
40123;DHT22;25832;45.490;4.912;2023-03-31T14:29:39;16.80;70.40
40123;DHT22;25832;45.490;4.912;2023-03-31T14:37:42;16.70;73.00
40123;DHT22;25832;45.490;4.912;2023-03-31T14:40:13;16.60;72.00
40123;DHT22;25832;45.490;4.912;2023-03-31T14:42:41;16.50;73.00
40123;DHT22;25832;45.490;4.912;2023-03-31T14:45:23;16.30;72.70
40123;DHT22;25832;45.490;4.912;2023-03-31T14:48:07;16.20;74.60
40123;DHT22;25832;45.490;4.912;2023-03-31T14:50:35;16.30;75.40
40123;DHT22;25832;45.490;4.912;2023-03-31T14:53:01;16.30;74.00
40123;DHT22;25832;45.490;4.912;2023-03-31T14:55:31;16.30;73.90
40123;DHT22;25832;45.490;4.912;2023-03-31T14:57:59;16.20;74.20
40123;DHT22;25832;45.490;4.912;2023-03-31T15:00:29;16.10;74.50
40123;DHT22;25832;45.490;4.912;2023-03-31T15:02:57;16.10;74.00
40123;DHT22;25832;45.490;4.912;2023-03-31T15:05:29;15.90;75.60
40123;DHT22;25832;45.490;4.912;2023-03-31T15:07:57;15.90;75.90
40123;DHT22;25832;45.490;4.912;2023-03-31T15:10:23;15.80;77.80
40123;DHT22;25832;45.490;4.912;2023-03-31T15:12:49;15.50;80.80
40123;DHT22;25832;45.490;4.912;2023-03-31T15:15:17;15.20;83.10
40123;DHT22;25832;45.490;4.912;2023-03-31T15:17:45;15.30;87.50
40123;DHT22;25832;45.490;4.912;2023-03-31T15:20:25;15.40;86.10
40123;DHT22;25832;45.490;4.912;2023-03-31T15:22:55;15.50;84.90
40123;DHT22;25832;45.490;4.912;2023-03-31T15:25:28;15.60;82.30
40123;DHT22;25832;45.490;4.912;2023-03-31T15:27:59;15.70;85.20
40123;DHT22;25832;45.490;4.912;2023-03-31T15:30:27;15.70;82.20
40123;DHT22;25832;45.490;4.912;2023-03-31T15:32:53;15.70;84.00
40123;DHT22;25832;45.490;4.912;2023-03-31T15:35:31;15.70;83.50
40123;DHT22;25832;45.490;4.912;2023-03-31T15:37:59;15.80;80.80
40123;DHT22;25832;45.490;4.912;2023-03-31T15:40:37;15.80;82.00
40123;DHT22;25832;45.490;4.912;2023-03-31T15:45:50;15.50;79.50
40123;DHT22;25832;45.490;4.912;2023-03-31T15:50:47;15.40;79.70
40123;DHT22;25832;45.490;4.912;2023-03-31T15:55:54;15.40;77.60
40123;DHT22;25832;45.490;4.912;2023-03-31T15:58:23;15.40;78.20
40123;DHT22;25832;45.490;4.912;2023-03-31T16:00:51;15.50;78.20
40123;DHT22;25832;45.490;4.912;2023-03-31T16:03:27;15.60;77.30
40123;DHT22;25832;45.490;4.912;2023-03-31T16:05:55;15.60;78.50
40123;DHT22;25832;45.490;4.912;2023-03-31T16:10:48;15.50;77.30
40123;DHT22;25832;45.490;4.912;2023-03-31T16:13:20;15.40;77.30
40123;DHT22;25832;45.490;4.912;2023-03-31T16:15:48;15.30;77.30
40123;DHT22;25832;45.490;4.912;2023-03-31T16:18:39;15.30;80.30
40123;DHT22;25832;45.490;4.912;2023-03-31T16:21:07;14.40;83.50
40123;DHT22;25832;45.490;4.912;2023-03-31T16:23:36;13.80;87.80
40123;DHT22;25832;45.490;4.912;2023-03-31T16:26:06;13.30;90.20
40123;DHT22;25832;45.490;4.912;2023-03-31T16:28:34;13.00;91.50
40123;DHT22;25832;45.490;4.912;2023-03-31T16:31:01;12.90;92.80
40123;DHT22;25832;45.490;4.912;2023-03-31T16:33:28;12.90;92.50
40123;DHT22;25832;45.490;4.912;2023-03-31T16:35:56;13.00;93.30
40123;DHT22;25832;45.490;4.912;2023-03-31T16:38:24;13.20;93.70
40123;DHT22;25832;45.490;4.912;2023-03-31T16:40:55;13.40;93.00
40123;DHT22;25832;45.490;4.912;2023-03-31T16:45:52;13.40;92.90
40123;DHT22;25832;45.490;4.912;2023-03-31T16:48:20;13.60;93.00
40123;DHT22;25832;45.490;4.912;2023-03-31T16:50:48;13.80;91.60
40123;DHT22;25832;45.490;4.912;2023-03-31T16:53:18;14.00;91.50
40123;DHT22;25832;45.490;4.912;2023-03-31T16:55:44;14.20;91.40
40123;DHT22;25832;45.490;4.912;2023-03-31T16:58:10;14.30;91.30
40123;DHT22;25832;45.490;4.912;2023-03-31T17:00:37;14.30;90.70
40123;DHT22;25832;45.490;4.912;2023-03-31T17:03:05;14.20;91.00
40123;DHT22;25832;45.490;4.912;2023-03-31T17:05:40;14.00;91.40
40123;DHT22;25832;45.490;4.912;2023-03-31T17:08:06;13.80;91.80
40123;DHT22;25832;45.490;4.912;2023-03-31T17:10:33;13.50;92.50
40123;DHT22;25832;45.490;4.912;2023-03-31T17:12:59;13.30;92.80
40123;DHT22;25832;45.490;4.912;2023-03-31T17:15:25;13.20;93.10
40123;DHT22;25832;45.490;4.912;2023-03-31T17:17:51;13.10;93.60
40123;DHT22;25832;45.490;4.912;2023-03-31T17:20:17;13.10;93.80
40123;DHT22;25832;45.490;4.912;2023-03-31T17:22:42;13.00;93.60
40123;DHT22;25832;45.490;4.912;2023-03-31T17:25:08;12.80;93.00
40123;DHT22;25832;45.490;4.912;2023-03-31T17:27:34;12.70;93.40
40123;DHT22;25832;45.490;4.912;2023-03-31T17:30:00;12.60;95.10
40123;DHT22;25832;45.490;4.912;2023-03-31T17:32:26;12.60;96.20
40123;DHT22;25832;45.490;4.912;2023-03-31T17:34:52;12.50;96.20
40123;DHT22;25832;45.490;4.912;2023-03-31T17:37:18;12.40;96.20
40123;DHT22;25832;45.490;4.912;2023-03-31T17:39:44;12.30;96.90
40123;DHT22;25832;45.490;4.912;2023-03-31T17:42:11;12.10;98.60
40123;DHT22;25832;45.490;4.912;2023-03-31T17:44:43;12.00;99.30
40123;DHT22;25832;45.490;4.912;2023-03-31T17:47:11;12.00;99.40
40123;DHT22;25832;45.490;4.912;2023-03-31T17:49:37;11.90;99.80
40123;DHT22;25832;45.490;4.912;2023-03-31T17:52:03;11.90;99.80
40123;DHT22;25832;45.490;4.912;2023-03-31T17:54:29;11.80;99.00
40123;DHT22;25832;45.490;4.912;2023-03-31T17:56:55;11.80;98.90
40123;DHT22;25832;45.490;4.912;2023-03-31T17:59:21;11.70;99.50
40123;DHT22;25832;45.490;4.912;2023-03-31T18:01:48;11.70;98.80
40123;DHT22;25832;45.490;4.912;2023-03-31T18:04:14;11.70;98.00
40123;DHT22;25832;45.490;4.912;2023-03-31T18:06:40;11.60;97.60
40123;DHT22;25832;45.490;4.912;2023-03-31T18:09:10;11.60;98.30
40123;DHT22;25832;45.490;4.912;2023-03-31T18:11:36;11.60;98.70
40123;DHT22;25832;45.490;4.912;2023-03-31T18:14:02;11.60;95.10
40123;DHT22;25832;45.490;4.912;2023-03-31T18:16:30;11.60;95.50
40123;DHT22;25832;45.490;4.912;2023-03-31T18:18:56;11.60;95.80
40123;DHT22;25832;45.490;4.912;2023-03-31T18:21:22;11.60;95.30
40123;DHT22;25832;45.490;4.912;2023-03-31T18:23:49;11.60;95.00
40123;DHT22;25832;45.490;4.912;2023-03-31T18:26:21;11.70;95.50
40123;DHT22;25832;45.490;4.912;2023-03-31T18:28:48;11.70;94.30
40123;DHT22;25832;45.490;4.912;2023-03-31T18:31:14;11.70;95.20
40123;DHT22;25832;45.490;4.912;2023-03-31T18:33:41;11.60;94.80
40123;DHT22;25832;45.490;4.912;2023-03-31T18:36:08;11.70;94.00
40123;DHT22;25832;45.490;4.912;2023-03-31T18:38:37;11.70;94.80
40123;DHT22;25832;45.490;4.912;2023-03-31T18:41:03;11.60;94.80
40123;DHT22;25832;45.490;4.912;2023-03-31T18:43:29;11.60;94.80
40123;DHT22;25832;45.490;4.912;2023-03-31T18:45:55;11.60;94.80
40123;DHT22;25832;45.490;4.912;2023-03-31T18:48:23;11.50;94.30
40123;DHT22;25832;45.490;4.912;2023-03-31T18:50:50;11.50;94.50
40123;DHT22;25832;45.490;4.912;2023-03-31T18:53:19;11.50;94.80
40123;DHT22;25832;45.490;4.912;2023-03-31T18:55:54;11.50;94.50
40123;DHT22;25832;45.490;4.912;2023-03-31T18:58:21;11.50;94.60
40123;DHT22;25832;45.490;4.912;2023-03-31T19:00:47;11.50;93.90
40123;DHT22;25832;45.490;4.912;2023-03-31T19:03:13;11.50;94.30
40123;DHT22;25832;45.490;4.912;2023-03-31T19:05:39;11.50;94.10
40123;DHT22;25832;45.490;4.912;2023-03-31T19:08:05;11.40;94.50
40123;DHT22;25832;45.490;4.912;2023-03-31T19:10:31;11.40;94.40
40123;DHT22;25832;45.490;4.912;2023-03-31T19:12:57;11.50;93.90